sensor_id;sensor_type;location;lat;lon;timestamp;P1;durP1;ratioP1;P2;durP2;ratioP2
72337;SDS011;60294;64.134;-21.862;2023-04-24T00:00:01;7.27;;;1.70;;
72337;SDS011;60294;64.134;-21.862;2023-04-24T00:02:30;4.30;;;1.63;;
72337;SDS011;60294;64.134;-21.862;2023-04-24T00:04:57;4.37;;;1.70;;
72337;SDS011;60294;64.134;-21.862;2023-04-24T00:07:28;5.07;;;1.23;;
72337;SDS011;60294;64.134;-21.862;2023-04-24T00:09:54;5.77;;;1.47;;
72337;SDS011;60294;64.134;-21.862;2023-04-24T00:12:20;7.50;;;2.00;;
72337;SDS011;60294;64.134;-21.862;2023-04-24T00:14:46;8.10;;;1.20;;
72337;SDS011;60294;64.134;-21.862;2023-04-24T00:17:12;10.50;;;2.03;;
72337;SDS011;60294;64.134;-21.862;2023-04-24T00:19:38;10.17;;;1.83;;
72337;SDS011;60294;64.134;-21.862;2023-04-24T00:22:04;4.70;;;1.53;;
72337;SDS011;60294;64.134;-21.862;2023-04-24T00:24:30;2.93;;;1.97;;
72337;SDS011;60294;64.134;-21.862;2023-04-24T00:26:56;7.60;;;1.63;;
72337;SDS011;60294;64.134;-21.862;2023-04-24T00:29:22;7.17;;;1.67;;
72337;SDS011;60294;64.134;-21.862;2023-04-24T00:31:48;5.97;;;2.00;;
72337;SDS011;60294;64.134;-21.862;2023-04-24T00:34:14;4.07;;;1.60;;
72337;SDS011;60294;64.134;-21.862;2023-04-24T00:36:40;3.70;;;1.87;;
72337;SDS011;60294;64.134;-21.862;2023-04-24T00:39:06;2.13;;;1.50;;
72337;SDS011;60294;64.134;-21.862;2023-04-24T00:41:33;7.40;;;2.27;;
72337;SDS011;60294;64.134;-21.862;2023-04-24T00:44:00;5.93;;;1.70;;
72337;SDS011;60294;64.134;-21.862;2023-04-24T00:46:26;8.10;;;1.93;;
72337;SDS011;60294;64.134;-21.862;2023-04-24T00:48:52;5.93;;;1.63;;
72337;SDS011;60294;64.134;-21.862;2023-04-24T00:51:18;4.03;;;1.57;;
72337;SDS011;60294;64.134;-21.862;2023-04-24T00:53:44;3.50;;;1.60;;
72337;SDS011;60294;64.134;-21.862;2023-04-24T00:56:10;5.63;;;1.73;;
72337;SDS011;60294;64.134;-21.862;2023-04-24T00:58:36;4.30;;;1.37;;
72337;SDS011;60294;64.134;-21.862;2023-04-24T01:01:02;6.30;;;2.13;;
72337;SDS011;60294;64.134;-21.862;2023-04-24T01:03:32;2.70;;;1.30;;
72337;SDS011;60294;64.134;-21.862;2023-04-24T01:05:59;3.77;;;1.50;;
72337;SDS011;60294;64.134;-21.862;2023-04-24T01:08:26;3.53;;;1.40;;
72337;SDS011;60294;64.134;-21.862;2023-04-24T01:10:53;5.67;;;1.80;;
72337;SDS011;60294;64.134;-21.862;2023-04-24T01:13:20;4.40;;;1.90;;
72337;SDS011;60294;64.134;-21.862;2023-04-24T01:15:46;7.67;;;1.70;;
72337;SDS011;60294;64.134;-21.862;2023-04-24T01:18:13;4.83;;;2.37;;
72337;SDS011;60294;64.134;-21.862;2023-04-24T01:20:39;2.33;;;1.30;;
72337;SDS011;60294;64.134;-21.862;2023-04-24T01:23:07;10.23;;;2.00;;
72337;SDS011;60294;64.134;-21.862;2023-04-24T01:25:33;6.33;;;2.33;;
72337;SDS011;60294;64.134;-21.862;2023-04-24T01:28:00;8.13;;;1.93;;
72337;SDS011;60294;64.134;-21.862;2023-04-24T01:30:27;3.10;;;1.53;;
72337;SDS011;60294;64.134;-21.862;2023-04-24T01:32:54;5.07;;;1.70;;
72337;SDS011;60294;64.134;-21.862;2023-04-24T01:35:21;4.03;;;1.67;;
72337;SDS011;60294;64.134;-21.862;2023-04-24T01:37:47;2.67;;;1.63;;
72337;SDS011;60294;64.134;-21.862;2023-04-24T01:40:13;5.83;;;1.40;;
72337;SDS011;60294;64.134;-21.862;2023-04-24T01:42:40;8.57;;;2.10;;
72337;SDS011;60294;64.134;-21.862;2023-04-24T01:45:08;2.63;;;1.73;;
72337;SDS011;60294;64.134;-21.862;2023-04-24T01:47:38;4.50;;;1.83;;
72337;SDS011;60294;64.134;-21.862;2023-04-24T01:50:04;2.67;;;1.30;;
72337;SDS011;60294;64.134;-21.862;2023-04-24T01:52:31;7.43;;;1.50;;
72337;SDS011;60294;64.134;-21.862;2023-04-24T01:55:01;7.53;;;1.50;;
72337;SDS011;60294;64.134;-21.862;2023-04-24T01:57:29;3.23;;;1.73;;
72337;SDS011;60294;64.134;-21.862;2023-04-24T01:59:56;4.20;;;1.50;;
72337;SDS011;60294;64.134;-21.862;2023-04-24T02:02:22;5.60;;;1.33;;
72337;SDS011;60294;64.134;-21.862;2023-04-24T02:04:55;3.37;;;1.50;;
72337;SDS011;60294;64.134;-21.862;2023-04-24T02:07:22;2.10;;;1.40;;
72337;SDS011;60294;64.134;-21.862;2023-04-24T02:09:48;2.07;;;1.00;;
72337;SDS011;60294;64.134;-21.862;2023-04-24T02:12:14;1.27;;;0.90;;
72337;SDS011;60294;64.134;-21.862;2023-04-24T02:14:40;0.57;;;0.53;;
72337;SDS011;60294;64.134;-21.862;2023-04-24T02:17:11;0.50;;;0.40;;
72337;SDS011;60294;64.134;-21.862;2023-04-24T02:19:38;1.53;;;0.70;;
72337;SDS011;60294;64.134;-21.862;2023-04-24T02:22:04;1.20;;;0.50;;
72337;SDS011;60294;64.134;-21.862;2023-04-24T02:24:30;0.50;;;0.30;;
72337;SDS011;60294;64.134;-21.862;2023-04-24T02:26:56;0.40;;;0.30;;
72337;SDS011;60294;64.134;-21.862;2023-04-24T02:29:22;0.50;;;0.30;;
72337;SDS011;60294;64.134;-21.862;2023-04-24T02:31:48;1.80;;;0.40;;
72337;SDS011;60294;64.134;-21.862;2023-04-24T02:34:14;0.30;;;0.30;;
72337;SDS011;60294;64.134;-21.862;2023-04-24T02:36:41;0.87;;;0.50;;
72337;SDS011;60294;64.134;-21.862;2023-04-24T02:39:08;0.40;;;0.40;;
72337;SDS011;60294;64.134;-21.862;2023-04-24T02:41:34;0.50;;;0.50;;
72337;SDS011;60294;64.134;-21.862;2023-04-24T02:44:00;0.37;;;0.33;;
72337;SDS011;60294;64.134;-21.862;2023-04-24T02:46:26;0.37;;;0.37;;
72337;SDS011;60294;64.134;-21.862;2023-04-24T02:48:52;0.63;;;0.47;;
72337;SDS011;60294;64.134;-21.862;2023-04-24T02:51:17;2.37;;;0.37;;
72337;SDS011;60294;64.134;-21.862;2023-04-24T02:53:43;1.93;;;0.50;;
72337;SDS011;60294;64.134;-21.862;2023-04-24T02:56:09;0.87;;;0.50;;
72337;SDS011;60294;64.134;-21.862;2023-04-24T02:58:37;1.27;;;0.53;;
72337;SDS011;60294;64.134;-21.862;2023-04-24T03:01:03;4.00;;;0.70;;
72337;SDS011;60294;64.134;-21.862;2023-04-24T03:03:29;0.70;;;0.63;;
72337;SDS011;60294;64.134;-21.862;2023-04-24T03:05:55;0.57;;;0.47;;
72337;SDS011;60294;64.134;-21.862;2023-04-24T03:08:22;1.13;;;0.53;;
72337;SDS011;60294;64.134;-21.862;2023-04-24T03:10:48;3.93;;;0.60;;
72337;SDS011;60294;64.134;-21.862;2023-04-24T03:13:15;1.17;;;0.70;;
72337;SDS011;60294;64.134;-21.862;2023-04-24T03:15:41;2.13;;;1.00;;
72337;SDS011;60294;64.134;-21.862;2023-04-24T03:18:07;0.80;;;0.60;;
72337;SDS011;60294;64.134;-21.862;2023-04-24T03:20:34;2.73;;;0.80;;
72337;SDS011;60294;64.134;-21.862;2023-04-24T03:23:01;3.80;;;1.13;;
72337;SDS011;60294;64.134;-21.862;2023-04-24T03:25:28;1.63;;;0.97;;
72337;SDS011;60294;64.134;-21.862;2023-04-24T03:27:53;1.10;;;0.80;;
72337;SDS011;60294;64.134;-21.862;2023-04-24T03:30:20;2.87;;;0.90;;
72337;SDS011;60294;64.134;-21.862;2023-04-24T03:32:46;3.23;;;0.80;;
72337;SDS011;60294;64.134;-21.862;2023-04-24T03:35:11;1.63;;;0.70;;
72337;SDS011;60294;64.134;-21.862;2023-04-24T03:37:37;2.90;;;0.90;;
72337;SDS011;60294;64.134;-21.862;2023-04-24T03:40:03;1.77;;;0.70;;
72337;SDS011;60294;64.134;-21.862;2023-04-24T03:42:31;0.83;;;0.67;;
72337;SDS011;60294;64.134;-21.862;2023-04-24T03:44:56;2.93;;;0.60;;
72337;SDS011;60294;64.134;-21.862;2023-04-24T03:47:22;4.07;;;0.87;;
72337;SDS011;60294;64.134;-21.862;2023-04-24T03:49:48;1.10;;;0.93;;
72337;SDS011;60294;64.134;-21.862;2023-04-24T03:52:14;3.80;;;0.90;;
72337;SDS011;60294;64.134;-21.862;2023-04-24T03:54:40;5.40;;;0.90;;
72337;SDS011;60294;64.134;-21.862;2023-04-24T03:57:06;3.23;;;0.80;;
72337;SDS011;60294;64.134;-21.862;2023-04-24T03:59:31;1.53;;;0.90;;
72337;SDS011;60294;64.134;-21.862;2023-04-24T04:01:57;1.33;;;0.80;;
72337;SDS011;60294;64.134;-21.862;2023-04-24T04:04:23;3.80;;;1.33;;
72337;SDS011;60294;64.134;-21.862;2023-04-24T04:06:49;1.10;;;0.80;;
72337;SDS011;60294;64.134;-21.862;2023-04-24T04:09:15;1.50;;;0.70;;
72337;SDS011;60294;64.134;-21.862;2023-04-24T04:11:40;3.27;;;0.90;;
72337;SDS011;60294;64.134;-21.862;2023-04-24T04:14:06;3.43;;;0.90;;
72337;SDS011;60294;64.134;-21.862;2023-04-24T04:16:32;1.43;;;0.73;;
72337;SDS011;60294;64.134;-21.862;2023-04-24T04:18:58;0.77;;;0.63;;
72337;SDS011;60294;64.134;-21.862;2023-04-24T04:21:24;1.47;;;0.80;;
72337;SDS011;60294;64.134;-21.862;2023-04-24T04:23:50;3.10;;;0.70;;
72337;SDS011;60294;64.134;-21.862;2023-04-24T04:26:16;1.00;;;0.80;;
72337;SDS011;60294;64.134;-21.862;2023-04-24T04:28:41;2.47;;;0.60;;
72337;SDS011;60294;64.134;-21.862;2023-04-24T04:31:09;2.03;;;0.93;;
72337;SDS011;60294;64.134;-21.862;2023-04-24T04:33:35;0.77;;;0.60;;
72337;SDS011;60294;64.134;-21.862;2023-04-24T04:36:03;2.43;;;0.73;;
72337;SDS011;60294;64.134;-21.862;2023-04-24T04:38:29;0.83;;;0.73;;
72337;SDS011;60294;64.134;-21.862;2023-04-24T04:40:55;3.30;;;1.20;;
72337;SDS011;60294;64.134;-21.862;2023-04-24T04:43:24;4.90;;;1.17;;
72337;SDS011;60294;64.134;-21.862;2023-04-24T04:45:50;3.10;;;1.00;;
72337;SDS011;60294;64.134;-21.862;2023-04-24T04:48:16;1.47;;;0.90;;
72337;SDS011;60294;64.134;-21.862;2023-04-24T04:50:43;3.13;;;0.93;;
72337;SDS011;60294;64.134;-21.862;2023-04-24T04:53:10;1.23;;;0.80;;
72337;SDS011;60294;64.134;-21.862;2023-04-24T04:55:36;1.17;;;0.80;;
72337;SDS011;60294;64.134;-21.862;2023-04-24T04:58:02;3.23;;;0.80;;
72337;SDS011;60294;64.134;-21.862;2023-04-24T05:00:28;4.67;;;0.93;;
72337;SDS011;60294;64.134;-21.862;2023-04-24T05:02:59;1.17;;;0.80;;
72337;SDS011;60294;64.134;-21.862;2023-04-24T05:05:25;3.03;;;1.00;;
72337;SDS011;60294;64.134;-21.862;2023-04-24T05:07:51;2.37;;;0.70;;
72337;SDS011;60294;64.134;-21.862;2023-04-24T05:10:17;2.07;;;1.00;;
72337;SDS011;60294;64.134;-21.862;2023-04-24T05:12:42;3.13;;;1.13;;
72337;SDS011;60294;64.134;-21.862;2023-04-24T05:15:08;3.33;;;1.13;;
72337;SDS011;60294;64.134;-21.862;2023-04-24T05:17:34;2.97;;;1.20;;
72337;SDS011;60294;64.134;-21.862;2023-04-24T05:20:01;0.90;;;0.80;;
72337;SDS011;60294;64.134;-21.862;2023-04-24T05:22:30;1.57;;;0.80;;
72337;SDS011;60294;64.134;-21.862;2023-04-24T05:24:56;3.97;;;1.30;;
72337;SDS011;60294;64.134;-21.862;2023-04-24T05:27:22;1.13;;;0.70;;
72337;SDS011;60294;64.134;-21.862;2023-04-24T05:29:48;5.37;;;1.53;;
72337;SDS011;60294;64.134;-21.862;2023-04-24T05:32:14;3.03;;;1.60;;
72337;SDS011;60294;64.134;-21.862;2023-04-24T05:34:40;2.87;;;1.10;;
72337;SDS011;60294;64.134;-21.862;2023-04-24T05:37:05;3.67;;;0.93;;
72337;SDS011;60294;64.134;-21.862;2023-04-24T05:39:34;1.93;;;0.80;;
72337;SDS011;60294;64.134;-21.862;2023-04-24T05:42:01;4.87;;;1.00;;
72337;SDS011;60294;64.134;-21.862;2023-04-24T05:44:27;2.07;;;0.90;;
72337;SDS011;60294;64.134;-21.862;2023-04-24T05:46:53;1.07;;;0.67;;
72337;SDS011;60294;64.134;-21.862;2023-04-24T05:49:21;3.83;;;1.07;;
72337;SDS011;60294;64.134;-21.862;2023-04-24T05:51:46;1.53;;;0.87;;
72337;SDS011;60294;64.134;-21.862;2023-04-24T05:54:12;2.70;;;1.10;;
72337;SDS011;60294;64.134;-21.862;2023-04-24T05:56:38;3.17;;;1.13;;
72337;SDS011;60294;64.134;-21.862;2023-04-24T05:59:05;4.67;;;0.80;;
72337;SDS011;60294;64.134;-21.862;2023-04-24T06:01:30;1.70;;;0.70;;
72337;SDS011;60294;64.134;-21.862;2023-04-24T06:03:56;4.20;;;1.03;;
72337;SDS011;60294;64.134;-21.862;2023-04-24T06:06:23;2.07;;;0.90;;
72337;SDS011;60294;64.134;-21.862;2023-04-24T06:08:49;1.23;;;0.83;;
72337;SDS011;60294;64.134;-21.862;2023-04-24T06:11:15;3.33;;;1.50;;
72337;SDS011;60294;64.134;-21.862;2023-04-24T06:13:41;4.90;;;1.10;;
72337;SDS011;60294;64.134;-21.862;2023-04-24T06:16:07;1.20;;;0.90;;
72337;SDS011;60294;64.134;-21.862;2023-04-24T06:18:33;1.73;;;0.80;;
72337;SDS011;60294;64.134;-21.862;2023-04-24T06:20:58;1.63;;;1.27;;
72337;SDS011;60294;64.134;-21.862;2023-04-24T06:23:24;1.07;;;0.67;;
72337;SDS011;60294;64.134;-21.862;2023-04-24T06:25:50;0.97;;;0.70;;
72337;SDS011;60294;64.134;-21.862;2023-04-24T06:28:16;1.37;;;0.90;;
72337;SDS011;60294;64.134;-21.862;2023-04-24T06:30:42;2.43;;;0.93;;
72337;SDS011;60294;64.134;-21.862;2023-04-24T06:33:08;0.57;;;0.57;;
72337;SDS011;60294;64.134;-21.862;2023-04-24T06:35:35;2.47;;;0.70;;
72337;SDS011;60294;64.134;-21.862;2023-04-24T06:38:02;1.90;;;0.87;;
72337;SDS011;60294;64.134;-21.862;2023-04-24T06:40:28;2.10;;;1.20;;
72337;SDS011;60294;64.134;-21.862;2023-04-24T06:42:55;1.23;;;0.63;;
72337;SDS011;60294;64.134;-21.862;2023-04-24T06:45:21;1.83;;;0.97;;
72337;SDS011;60294;64.134;-21.862;2023-04-24T06:47:46;3.17;;;1.20;;
72337;SDS011;60294;64.134;-21.862;2023-04-24T06:50:12;1.37;;;0.63;;
72337;SDS011;60294;64.134;-21.862;2023-04-24T06:52:38;6.70;;;1.50;;
72337;SDS011;60294;64.134;-21.862;2023-04-24T06:55:04;3.03;;;0.97;;
72337;SDS011;60294;64.134;-21.862;2023-04-24T06:57:31;1.23;;;0.70;;
72337;SDS011;60294;64.134;-21.862;2023-04-24T06:59:56;2.53;;;1.00;;
72337;SDS011;60294;64.134;-21.862;2023-04-24T07:02:22;2.27;;;0.83;;
72337;SDS011;60294;64.134;-21.862;2023-04-24T07:04:48;1.93;;;0.77;;
72337;SDS011;60294;64.134;-21.862;2023-04-24T07:07:14;2.50;;;0.83;;
72337;SDS011;60294;64.134;-21.862;2023-04-24T07:09:40;1.93;;;1.20;;
72337;SDS011;60294;64.134;-21.862;2023-04-24T07:12:10;3.53;;;1.23;;
72337;SDS011;60294;64.134;-21.862;2023-04-24T07:14:37;2.33;;;1.13;;
72337;SDS011;60294;64.134;-21.862;2023-04-24T07:17:03;1.43;;;0.93;;
72337;SDS011;60294;64.134;-21.862;2023-04-24T07:19:31;1.77;;;1.00;;
72337;SDS011;60294;64.134;-21.862;2023-04-24T07:21:57;2.53;;;1.17;;
72337;SDS011;60294;64.134;-21.862;2023-04-24T07:24:24;2.93;;;1.10;;
72337;SDS011;60294;64.134;-21.862;2023-04-24T07:26:51;1.43;;;0.93;;
72337;SDS011;60294;64.134;-21.862;2023-04-24T07:29:17;1.63;;;0.90;;
72337;SDS011;60294;64.134;-21.862;2023-04-24T07:31:43;3.33;;;1.13;;
72337;SDS011;60294;64.134;-21.862;2023-04-24T07:34:09;1.27;;;0.93;;
72337;SDS011;60294;64.134;-21.862;2023-04-24T07:36:36;1.63;;;0.83;;
72337;SDS011;60294;64.134;-21.862;2023-04-24T07:39:03;2.50;;;1.57;;
72337;SDS011;60294;64.134;-21.862;2023-04-24T07:41:30;7.23;;;1.10;;
72337;SDS011;60294;64.134;-21.862;2023-04-24T07:43:56;5.47;;;1.10;;
72337;SDS011;60294;64.134;-21.862;2023-04-24T07:46:23;4.67;;;1.07;;
72337;SDS011;60294;64.134;-21.862;2023-04-24T07:48:49;5.43;;;1.40;;
72337;SDS011;60294;64.134;-21.862;2023-04-24T07:51:15;5.10;;;1.57;;
72337;SDS011;60294;64.134;-21.862;2023-04-24T07:53:42;5.23;;;1.60;;
72337;SDS011;60294;64.134;-21.862;2023-04-24T07:56:08;5.30;;;1.30;;
72337;SDS011;60294;64.134;-21.862;2023-04-24T07:58:34;2.47;;;1.13;;
72337;SDS011;60294;64.134;-21.862;2023-04-24T08:01:00;3.47;;;1.00;;
72337;SDS011;60294;64.134;-21.862;2023-04-24T08:03:26;2.03;;;1.33;;
72337;SDS011;60294;64.134;-21.862;2023-04-24T08:05:52;4.57;;;1.50;;
72337;SDS011;60294;64.134;-21.862;2023-04-24T08:08:20;4.50;;;1.57;;
72337;SDS011;60294;64.134;-21.862;2023-04-24T08:10:47;4.47;;;1.67;;
72337;SDS011;60294;64.134;-21.862;2023-04-24T08:13:13;2.20;;;1.27;;
72337;SDS011;60294;64.134;-21.862;2023-04-24T08:15:39;2.73;;;1.27;;
72337;SDS011;60294;64.134;-21.862;2023-04-24T08:18:05;2.67;;;1.23;;
72337;SDS011;60294;64.134;-21.862;2023-04-24T08:20:31;2.50;;;1.40;;
72337;SDS011;60294;64.134;-21.862;2023-04-24T08:22:57;7.13;;;1.80;;
72337;SDS011;60294;64.134;-21.862;2023-04-24T08:25:23;5.37;;;1.23;;
72337;SDS011;60294;64.134;-21.862;2023-04-24T08:27:50;7.10;;;1.63;;
72337;SDS011;60294;64.134;-21.862;2023-04-24T08:30:16;5.93;;;1.20;;
72337;SDS011;60294;64.134;-21.862;2023-04-24T08:32:42;5.60;;;1.10;;
72337;SDS011;60294;64.134;-21.862;2023-04-24T08:35:08;3.93;;;1.20;;
72337;SDS011;60294;64.134;-21.862;2023-04-24T08:37:35;3.13;;;0.87;;
72337;SDS011;60294;64.134;-21.862;2023-04-24T08:40:02;1.83;;;1.00;;
72337;SDS011;60294;64.134;-21.862;2023-04-24T08:42:35;6.27;;;1.50;;
72337;SDS011;60294;64.134;-21.862;2023-04-24T08:45:02;5.90;;;1.47;;
72337;SDS011;60294;64.134;-21.862;2023-04-24T08:47:28;1.80;;;1.40;;
72337;SDS011;60294;64.134;-21.862;2023-04-24T08:49:56;2.50;;;1.07;;
72337;SDS011;60294;64.134;-21.862;2023-04-24T08:52:25;2.43;;;0.90;;
72337;SDS011;60294;64.134;-21.862;2023-04-24T08:54:51;3.40;;;1.37;;
72337;SDS011;60294;64.134;-21.862;2023-04-24T08:57:18;2.30;;;1.20;;
72337;SDS011;60294;64.134;-21.862;2023-04-24T08:59:44;5.80;;;3.27;;
72337;SDS011;60294;64.134;-21.862;2023-04-24T09:02:11;3.47;;;1.35;;
72337;SDS011;60294;64.134;-21.862;2023-04-24T09:04:39;5.78;;;1.25;;
72337;SDS011;60294;64.134;-21.862;2023-04-24T09:07:06;2.40;;;1.27;;
72337;SDS011;60294;64.134;-21.862;2023-04-24T09:09:33;5.03;;;1.70;;
72337;SDS011;60294;64.134;-21.862;2023-04-24T09:12:01;2.95;;;1.17;;
72337;SDS011;60294;64.134;-21.862;2023-04-24T09:14:28;1.85;;;0.95;;
72337;SDS011;60294;64.134;-21.862;2023-04-24T09:16:56;6.30;;;1.30;;
72337;SDS011;60294;64.134;-21.862;2023-04-24T09:19:23;4.40;;;1.05;;
72337;SDS011;60294;64.134;-21.862;2023-04-24T09:21:48;6.03;;;1.40;;
72337;SDS011;60294;64.134;-21.862;2023-04-24T09:24:15;4.75;;;1.30;;
72337;SDS011;60294;64.134;-21.862;2023-04-24T09:26:43;4.07;;;1.27;;
72337;SDS011;60294;64.134;-21.862;2023-04-24T09:29:13;3.63;;;1.10;;
72337;SDS011;60294;64.134;-21.862;2023-04-24T09:31:44;3.72;;;1.95;;
72337;SDS011;60294;64.134;-21.862;2023-04-24T09:34:11;6.70;;;1.75;;
72337;SDS011;60294;64.134;-21.862;2023-04-24T09:36:38;4.05;;;1.20;;
72337;SDS011;60294;64.134;-21.862;2023-04-24T09:39:06;2.58;;;1.25;;
72337;SDS011;60294;64.134;-21.862;2023-04-24T09:41:35;3.33;;;0.90;;
72337;SDS011;60294;64.134;-21.862;2023-04-24T09:44:16;2.65;;;1.50;;
72337;SDS011;60294;64.134;-21.862;2023-04-24T09:46:49;1.77;;;0.80;;
72337;SDS011;60294;64.134;-21.862;2023-04-24T09:49:20;3.58;;;1.60;;
72337;SDS011;60294;64.134;-21.862;2023-04-24T09:52:02;1.98;;;0.95;;
72337;SDS011;60294;64.134;-21.862;2023-04-24T09:54:32;2.22;;;0.88;;
72337;SDS011;60294;64.134;-21.862;2023-04-24T09:56:58;2.83;;;1.00;;
72337;SDS011;60294;64.134;-21.862;2023-04-24T09:59:25;3.67;;;1.27;;
72337;SDS011;60294;64.134;-21.862;2023-04-24T10:01:51;2.50;;;1.02;;
72337;SDS011;60294;64.134;-21.862;2023-04-24T10:04:18;8.75;;;1.23;;
72337;SDS011;60294;64.134;-21.862;2023-04-24T10:06:49;2.67;;;1.15;;
72337;SDS011;60294;64.134;-21.862;2023-04-24T10:09:19;4.15;;;1.23;;
72337;SDS011;60294;64.134;-21.862;2023-04-24T10:11:47;2.38;;;1.10;;
72337;SDS011;60294;64.134;-21.862;2023-04-24T10:14:15;5.90;;;1.15;;
72337;SDS011;60294;64.134;-21.862;2023-04-24T10:16:48;3.72;;;1.02;;
72337;SDS011;60294;64.134;-21.862;2023-04-24T10:19:16;4.32;;;1.10;;
72337;SDS011;60294;64.134;-21.862;2023-04-24T10:21:44;4.00;;;1.20;;
72337;SDS011;60294;64.134;-21.862;2023-04-24T10:24:16;2.72;;;1.35;;
72337;SDS011;60294;64.134;-21.862;2023-04-24T10:26:43;5.50;;;1.50;;
72337;SDS011;60294;64.134;-21.862;2023-04-24T10:29:11;3.60;;;1.10;;
72337;SDS011;60294;64.134;-21.862;2023-04-24T10:31:38;7.18;;;1.73;;
72337;SDS011;60294;64.134;-21.862;2023-04-24T10:34:07;2.53;;;1.20;;
72337;SDS011;60294;64.134;-21.862;2023-04-24T10:36:35;5.78;;;1.27;;
72337;SDS011;60294;64.134;-21.862;2023-04-24T10:39:06;4.40;;;1.17;;
72337;SDS011;60294;64.134;-21.862;2023-04-24T10:41:39;2.95;;;1.40;;
72337;SDS011;60294;64.134;-21.862;2023-04-24T10:44:09;5.20;;;1.67;;
72337;SDS011;60294;64.134;-21.862;2023-04-24T10:46:42;3.55;;;1.02;;
72337;SDS011;60294;64.134;-21.862;2023-04-24T10:49:10;10.32;;;1.20;;
72337;SDS011;60294;64.134;-21.862;2023-04-24T10:54:23;5.95;;;1.10;;
72337;SDS011;60294;64.134;-21.862;2023-04-24T10:56:52;1.85;;;1.20;;
72337;SDS011;60294;64.134;-21.862;2023-04-24T10:59:25;1.55;;;0.90;;
72337;SDS011;60294;64.134;-21.862;2023-04-24T11:01:53;3.13;;;0.80;;
72337;SDS011;60294;64.134;-21.862;2023-04-24T11:04:29;4.88;;;1.40;;
72337;SDS011;60294;64.134;-21.862;2023-04-24T11:06:56;5.15;;;1.05;;
72337;SDS011;60294;64.134;-21.862;2023-04-24T11:09:23;5.20;;;1.40;;
72337;SDS011;60294;64.134;-21.862;2023-04-24T11:11:53;2.85;;;0.90;;
72337;SDS011;60294;64.134;-21.862;2023-04-24T11:17:34;3.15;;;1.17;;
72337;SDS011;60294;64.134;-21.862;2023-04-24T11:20:16;4.82;;;1.10;;
72337;SDS011;60294;64.134;-21.862;2023-04-24T11:22:43;1.27;;;1.10;;
72337;SDS011;60294;64.134;-21.862;2023-04-24T11:25:09;4.38;;;1.23;;
72337;SDS011;60294;64.134;-21.862;2023-04-24T11:30:07;3.00;;;1.10;;
72337;SDS011;60294;64.134;-21.862;2023-04-24T11:35:03;7.72;;;1.17;;
72337;SDS011;60294;64.134;-21.862;2023-04-24T11:37:38;1.27;;;1.10;;
72337;SDS011;60294;64.134;-21.862;2023-04-24T11:40:06;4.20;;;1.15;;
72337;SDS011;60294;64.134;-21.862;2023-04-24T11:42:38;4.32;;;0.82;;
72337;SDS011;60294;64.134;-21.862;2023-04-24T11:45:17;2.45;;;1.20;;
72337;SDS011;60294;64.134;-21.862;2023-04-24T11:47:51;3.38;;;1.00;;
72337;SDS011;60294;64.134;-21.862;2023-04-24T11:50:17;8.50;;;1.40;;
72337;SDS011;60294;64.134;-21.862;2023-04-24T11:52:47;2.05;;;1.25;;
72337;SDS011;60294;64.134;-21.862;2023-04-24T11:57:40;1.70;;;0.95;;
72337;SDS011;60294;64.134;-21.862;2023-04-24T12:00:15;2.45;;;1.02;;
72337;SDS011;60294;64.134;-21.862;2023-04-24T12:02:45;4.63;;;1.10;;
72337;SDS011;60294;64.134;-21.862;2023-04-24T12:07:53;1.77;;;1.02;;
72337;SDS011;60294;64.134;-21.862;2023-04-24T12:10:26;5.07;;;1.00;;
72337;SDS011;60294;64.134;-21.862;2023-04-24T12:12:55;1.50;;;0.80;;
72337;SDS011;60294;64.134;-21.862;2023-04-24T12:15:22;1.33;;;0.80;;
72337;SDS011;60294;64.134;-21.862;2023-04-24T12:17:52;2.58;;;1.10;;
72337;SDS011;60294;64.134;-21.862;2023-04-24T12:20:27;1.55;;;0.90;;
72337;SDS011;60294;64.134;-21.862;2023-04-24T12:22:58;7.07;;;1.17;;
72337;SDS011;60294;64.134;-21.862;2023-04-24T12:25:34;2.60;;;0.90;;
72337;SDS011;60294;64.134;-21.862;2023-04-24T12:30:30;2.55;;;1.15;;
72337;SDS011;60294;64.134;-21.862;2023-04-24T12:33:00;2.05;;;1.23;;
72337;SDS011;60294;64.134;-21.862;2023-04-24T12:35:28;4.60;;;0.80;;
72337;SDS011;60294;64.134;-21.862;2023-04-24T12:38:04;4.05;;;1.10;;
72337;SDS011;60294;64.134;-21.862;2023-04-24T12:40:32;3.50;;;1.15;;
72337;SDS011;60294;64.134;-21.862;2023-04-24T12:42:58;1.52;;;1.00;;
72337;SDS011;60294;64.134;-21.862;2023-04-24T12:45:24;3.55;;;1.10;;
72337;SDS011;60294;64.134;-21.862;2023-04-24T12:47:50;5.43;;;1.63;;
72337;SDS011;60294;64.134;-21.862;2023-04-24T12:50:16;2.10;;;1.00;;
72337;SDS011;60294;64.134;-21.862;2023-04-24T12:52:42;4.50;;;1.08;;
72337;SDS011;60294;64.134;-21.862;2023-04-24T12:55:08;1.92;;;1.10;;
72337;SDS011;60294;64.134;-21.862;2023-04-24T12:57:35;1.70;;;1.05;;
72337;SDS011;60294;64.134;-21.862;2023-04-24T13:00:03;4.30;;;0.82;;
72337;SDS011;60294;64.134;-21.862;2023-04-24T13:02:30;4.75;;;1.10;;
72337;SDS011;60294;64.134;-21.862;2023-04-24T13:04:56;4.00;;;1.17;;
72337;SDS011;60294;64.134;-21.862;2023-04-24T13:07:23;3.25;;;1.75;;
72337;SDS011;60294;64.134;-21.862;2023-04-24T13:09:49;2.70;;;1.08;;
72337;SDS011;60294;64.134;-21.862;2023-04-24T13:12:16;4.65;;;1.40;;
72337;SDS011;60294;64.134;-21.862;2023-04-24T13:14:42;1.90;;;0.90;;
72337;SDS011;60294;64.134;-21.862;2023-04-24T13:17:08;2.92;;;1.30;;
72337;SDS011;60294;64.134;-21.862;2023-04-24T13:19:38;2.30;;;1.25;;
72337;SDS011;60294;64.134;-21.862;2023-04-24T13:22:05;3.20;;;1.20;;
72337;SDS011;60294;64.134;-21.862;2023-04-24T13:24:32;2.45;;;1.10;;
72337;SDS011;60294;64.134;-21.862;2023-04-24T13:26:58;2.33;;;1.25;;
72337;SDS011;60294;64.134;-21.862;2023-04-24T13:29:25;1.45;;;1.08;;
72337;SDS011;60294;64.134;-21.862;2023-04-24T13:31:51;3.85;;;1.58;;
72337;SDS011;60294;64.134;-21.862;2023-04-24T13:34:20;4.07;;;1.70;;
72337;SDS011;60294;64.134;-21.862;2023-04-24T13:36:47;2.97;;;1.13;;
72337;SDS011;60294;64.134;-21.862;2023-04-24T13:39:12;5.10;;;1.63;;
72337;SDS011;60294;64.134;-21.862;2023-04-24T13:41:38;2.05;;;1.23;;
72337;SDS011;60294;64.134;-21.862;2023-04-24T13:44:05;3.00;;;1.48;;
72337;SDS011;60294;64.134;-21.862;2023-04-24T13:46:31;1.67;;;1.05;;
72337;SDS011;60294;64.134;-21.862;2023-04-24T13:48:57;6.85;;;1.15;;
72337;SDS011;60294;64.134;-21.862;2023-04-24T13:51:23;6.55;;;1.42;;
72337;SDS011;60294;64.134;-21.862;2023-04-24T13:53:53;4.47;;;1.15;;
72337;SDS011;60294;64.134;-21.862;2023-04-24T13:56:19;4.55;;;1.60;;
72337;SDS011;60294;64.134;-21.862;2023-04-24T13:58:45;4.30;;;1.13;;
72337;SDS011;60294;64.134;-21.862;2023-04-24T14:01:11;3.00;;;1.20;;
72337;SDS011;60294;64.134;-21.862;2023-04-24T14:03:38;2.75;;;1.13;;
72337;SDS011;60294;64.134;-21.862;2023-04-24T14:06:04;2.20;;;1.27;;
72337;SDS011;60294;64.134;-21.862;2023-04-24T14:08:31;3.17;;;1.00;;
72337;SDS011;60294;64.134;-21.862;2023-04-24T14:10:57;1.92;;;1.40;;
72337;SDS011;60294;64.134;-21.862;2023-04-24T14:13:23;1.95;;;1.08;;
72337;SDS011;60294;64.134;-21.862;2023-04-24T14:15:49;1.35;;;0.90;;
72337;SDS011;60294;64.134;-21.862;2023-04-24T14:18:16;2.80;;;1.13;;
72337;SDS011;60294;64.134;-21.862;2023-04-24T14:20:42;2.65;;;1.67;;
72337;SDS011;60294;64.134;-21.862;2023-04-24T14:23:08;4.28;;;1.58;;
72337;SDS011;60294;64.134;-21.862;2023-04-24T14:25:34;5.90;;;1.25;;
72337;SDS011;60294;64.134;-21.862;2023-04-24T14:27:59;3.15;;;1.05;;
72337;SDS011;60294;64.134;-21.862;2023-04-24T14:30:25;2.10;;;0.98;;
72337;SDS011;60294;64.134;-21.862;2023-04-24T14:32:51;3.17;;;1.23;;
72337;SDS011;60294;64.134;-21.862;2023-04-24T14:35:17;6.35;;;1.50;;
72337;SDS011;60294;64.134;-21.862;2023-04-24T14:37:43;1.33;;;0.80;;